Accueil
METAR-TAF:

METAR-TAF

Aéroports :

Ramona Airport

Ramona, Californie, États-Unis

latitude: 33-02-15N, longitude: 116-54-57W, altitude: 424 m

Observation

Le bulletin a été fait il y a 14 minutes, à 02:53 UTC
Vent 13 kt de sud avec des rafales jusqu'à 25 kt
Température 10°C
Humidité 87%
Pression 1017 hPa
Visibilité: 16.1 km
Quelques nuages à une hauteur de 1300 ft
Quelques nuages à une hauteur de 1800 ft
Nuages épars à une hauteur de 3500 ft

METAR: KRNM 080253Z 18013G25KT 10SM FEW013 FEW018 SCT035 10/08 A3002 RMK AO2 SLP161 60000 T01000083 53016

Heure: 20:07 (03:07 UTC)


TAF: absent

Observations et prévisions météorologiques de plus de 4000 aéroports (messages METAR et TAF).

Les stations disponibles sont représentées par des disques jaunes et rouges sur la carte.

Passer la souris dessus pour voir le nom de la station.

Cliquer dessus pour voir les observations et prévisions météorologiques.

Pour changer de carte: cliquez sur les boutons verts avec une croix noire pour zoomer, sur le bouton vert avec un tiret pour effectuer un zoom arrière, ou sur les flèches vertes pour les cartes adjacentes.


METAR-TAF: